createdAt,value
2023-06-08T00:02:00.404Z,100.00
2023-06-08T00:04:31.722Z,100.00
2023-06-08T00:07:00.719Z,100.00
2023-06-08T00:09:29.981Z,100.00
2023-06-08T00:11:59.571Z,100.00
2023-06-08T00:14:29.801Z,100.00
2023-06-08T00:16:58.555Z,100.00
2023-06-08T00:19:27.324Z,100.00
2023-06-08T00:22:00.160Z,100.00
2023-06-08T00:24:29.099Z,100.00
2023-06-08T00:26:57.746Z,100.00
2023-06-08T00:29:26.099Z,100.00
2023-06-08T00:31:55.011Z,100.00
2023-06-08T00:34:23.755Z,100.00
2023-06-08T00:36:52.602Z,100.00
2023-06-08T00:39:22.382Z,100.00
2023-06-08T00:41:51.193Z,100.00
2023-06-08T00:44:20.818Z,100.00
2023-06-08T00:46:51.380Z,100.00
2023-06-08T00:49:21.741Z,100.00
2023-06-08T00:51:50.752Z,100.00
2023-06-08T00:54:21.255Z,100.00
2023-06-08T00:56:50.961Z,100.00
2023-06-08T00:59:25.497Z,100.00
2023-06-08T01:01:54.469Z,100.00
2023-06-08T01:04:24.855Z,100.00
2023-06-08T01:07:06.245Z,100.00
2023-06-08T01:09:48.889Z,100.00
2023-06-08T01:12:31.376Z,100.00
2023-06-08T01:15:11.244Z,100.00
2023-06-08T01:17:43.919Z,100.00
2023-06-08T01:20:33.327Z,100.00
2023-06-08T01:23:24.083Z,100.00
2023-06-08T01:25:58.155Z,100.00
2023-06-08T01:28:29.847Z,100.00
2023-06-08T01:30:59.728Z,100.00
2023-06-08T01:33:32.020Z,100.00
2023-06-08T01:36:10.729Z,100.00
2023-06-08T01:39:05.454Z,100.00
2023-06-08T01:41:38.901Z,100.00
2023-06-08T01:44:12.261Z,100.00
2023-06-08T01:46:41.336Z,100.00
2023-06-08T01:49:11.787Z,100.00
2023-06-08T01:51:41.054Z,100.00
2023-06-08T01:54:09.753Z,100.00
2023-06-08T01:56:40.713Z,100.00
2023-06-08T01:59:11.881Z,100.00
2023-06-08T02:01:40.312Z,100.00
2023-06-08T02:04:08.970Z,100.00
2023-06-08T02:06:37.452Z,100.00
2023-06-08T02:09:08.180Z,100.00
2023-06-08T02:11:38.138Z,100.00
2023-06-08T02:14:07.462Z,100.00
2023-06-08T02:16:36.277Z,100.00
2023-06-08T02:19:04.762Z,100.00
2023-06-08T02:21:33.512Z,100.00
2023-06-08T02:24:02.235Z,100.00
2023-06-08T02:26:30.788Z,100.00
2023-06-08T02:29:03.767Z,100.00
2023-06-08T02:31:33.852Z,100.00
2023-06-08T02:34:02.540Z,100.00
2023-06-08T02:36:32.996Z,100.00
2023-06-08T02:39:04.235Z,100.00
2023-06-08T02:41:33.244Z,100.00
2023-06-08T02:44:03.066Z,100.00
2023-06-08T02:46:33.988Z,100.00
2023-06-08T02:49:02.918Z,100.00
2023-06-08T02:51:32.376Z,100.00
2023-06-08T02:54:00.891Z,100.00
2023-06-08T02:56:29.817Z,100.00
2023-06-08T02:58:59.745Z,100.00
2023-06-08T03:01:32.482Z,100.00
2023-06-08T03:04:05.963Z,100.00
2023-06-08T03:06:43.564Z,100.00
2023-06-08T03:09:15.149Z,100.00
2023-06-08T03:11:49.442Z,100.00
2023-06-08T03:14:19.666Z,100.00
2023-06-08T03:16:50.010Z,100.00
2023-06-08T03:19:18.716Z,100.00
2023-06-08T03:21:50.931Z,100.00
2023-06-08T03:24:22.115Z,100.00
2023-06-08T03:26:52.217Z,100.00
2023-06-08T03:29:20.895Z,100.00
2023-06-08T03:31:51.117Z,100.00
2023-06-08T03:34:21.867Z,100.00
2023-06-08T03:36:50.927Z,100.00
2023-06-08T03:39:23.309Z,100.00
2023-06-08T03:41:52.907Z,100.00
2023-06-08T03:44:24.683Z,100.00
2023-06-08T03:46:54.773Z,100.00
2023-06-08T03:49:23.491Z,100.00
2023-06-08T03:51:52.172Z,100.00
2023-06-08T03:54:21.303Z,100.00
2023-06-08T03:56:50.112Z,100.00
2023-06-08T03:59:18.821Z,100.00
2023-06-08T04:01:48.879Z,100.00
2023-06-08T04:04:19.367Z,100.00
2023-06-08T04:06:48.062Z,100.00
2023-06-08T04:09:16.775Z,100.00
2023-06-08T04:11:45.843Z,100.00
2023-06-08T04:14:15.166Z,100.00
2023-06-08T04:16:43.465Z,100.00
2023-06-08T04:19:12.440Z,100.00
2023-06-08T04:21:44.816Z,100.00
2023-06-08T04:24:17.593Z,100.00
2023-06-08T04:26:47.789Z,100.00
2023-06-08T04:29:17.135Z,100.00
2023-06-08T04:31:46.537Z,100.00
2023-06-08T04:34:16.972Z,100.00
2023-06-08T04:36:47.812Z,100.00
2023-06-08T04:39:17.490Z,100.00
2023-06-08T04:41:47.611Z,100.00
2023-06-08T04:44:21.915Z,100.00
2023-06-08T04:46:52.587Z,100.00
2023-06-08T04:49:21.413Z,100.00
2023-06-08T04:51:51.542Z,100.00
2023-06-08T04:54:22.469Z,100.00
2023-06-08T04:56:51.190Z,100.00
2023-06-08T04:59:19.569Z,100.00
2023-06-08T05:01:48.570Z,100.00
2023-06-08T05:04:17.382Z,100.00
2023-06-08T05:06:46.314Z,100.00
2023-06-08T05:09:16.406Z,100.00
2023-06-08T05:11:44.737Z,100.00
2023-06-08T05:14:13.477Z,100.00
2023-06-08T05:16:42.148Z,100.00
2023-06-08T05:19:12.952Z,100.00
2023-06-08T05:21:42.948Z,100.00
2023-06-08T05:24:11.756Z,100.00
2023-06-08T05:26:43.195Z,100.00
2023-06-08T05:29:11.856Z,100.00
2023-06-08T05:31:40.848Z,100.00
2023-06-08T05:34:09.208Z,100.00
2023-06-08T05:36:38.591Z,100.00
2023-06-08T05:39:07.380Z,100.00
2023-06-08T05:41:36.370Z,100.00
2023-06-08T05:44:06.609Z,100.00
2023-06-08T05:46:34.902Z,100.00
2023-06-08T05:49:03.223Z,100.00
2023-06-08T05:51:31.592Z,100.00
2023-06-08T05:54:00.268Z,100.00
2023-06-08T05:56:29.195Z,100.00
2023-06-08T05:58:57.796Z,100.00
2023-06-08T06:01:28.708Z,100.00
2023-06-08T06:03:57.178Z,99.80
2023-06-08T06:06:25.981Z,97.95
2023-06-08T06:08:54.631Z,94.89
2023-06-08T06:11:23.361Z,92.65
2023-06-08T06:13:51.767Z,92.39
2023-06-08T06:16:20.175Z,89.00
2023-06-08T06:18:49.953Z,92.92
2023-06-08T06:21:18.757Z,90.08
2023-06-08T06:23:47.543Z,88.23
2023-06-08T06:26:16.142Z,87.54
2023-06-08T06:28:44.834Z,87.98
2023-06-08T06:31:13.899Z,87.72
2023-06-08T06:33:42.300Z,87.78
2023-06-08T06:36:12.371Z,90.27
2023-06-08T06:38:40.725Z,84.17
2023-06-08T06:41:09.412Z,89.02
2023-06-08T06:43:37.809Z,82.00
2023-06-08T06:46:08.866Z,81.89
2023-06-08T06:48:37.632Z,73.96
2023-06-08T06:51:06.353Z,76.37
2023-06-08T06:53:36.900Z,76.84
2023-06-08T06:56:06.171Z,71.58
2023-06-08T06:58:34.965Z,72.78
2023-06-08T07:01:04.951Z,73.24
2023-06-08T07:03:34.518Z,74.83
2023-06-08T07:06:05.393Z,71.28
2023-06-08T07:08:33.789Z,72.61
2023-06-08T07:11:04.003Z,66.44
2023-06-08T07:13:32.445Z,68.50
2023-06-08T07:16:02.221Z,68.66
2023-06-08T07:18:30.930Z,67.49
2023-06-08T07:20:59.340Z,67.47
2023-06-08T07:23:36.208Z,65.79
2023-06-08T07:26:28.300Z,64.32
2023-06-08T07:28:58.799Z,66.28
2023-06-08T07:31:28.271Z,65.91
2023-06-08T07:33:58.630Z,66.33
2023-06-08T07:36:29.735Z,64.38
2023-06-08T07:38:58.542Z,62.00
2023-06-08T07:41:28.549Z,62.33
2023-06-08T07:43:57.456Z,64.77
2023-06-08T07:46:26.178Z,59.98
2023-06-08T07:48:55.001Z,60.04
2023-06-08T07:51:23.375Z,60.52
2023-06-08T07:53:51.783Z,60.28
2023-06-08T07:56:20.743Z,61.65
2023-06-08T07:58:50.686Z,59.01
2023-06-08T08:01:19.899Z,58.47
2023-06-08T08:03:48.340Z,60.89
2023-06-08T08:06:17.213Z,58.81
2023-06-08T08:08:46.040Z,58.58
2023-06-08T08:11:14.363Z,57.23
2023-06-08T08:13:42.650Z,57.20
2023-06-08T08:16:12.347Z,57.72
2023-06-08T08:18:40.752Z,60.28
2023-06-08T08:21:09.083Z,55.75
2023-06-08T08:23:37.498Z,55.33
2023-06-08T08:26:06.230Z,58.86
2023-06-08T08:28:38.874Z,58.13
2023-06-08T08:31:07.626Z,57.13
2023-06-08T08:33:37.612Z,51.02
2023-06-08T08:36:07.452Z,53.47
2023-06-08T08:38:36.780Z,54.55
2023-06-08T08:41:10.859Z,53.42
2023-06-08T08:43:51.010Z,52.95
2023-06-08T08:46:23.528Z,52.89
2023-06-08T08:48:59.246Z,52.97
2023-06-08T08:51:29.656Z,56.33
2023-06-08T08:54:01.621Z,53.71
2023-06-08T08:56:32.055Z,49.54
2023-06-08T08:59:00.531Z,49.65
2023-06-08T09:01:28.888Z,51.76
2023-06-08T09:03:59.282Z,45.88
2023-06-08T09:06:29.977Z,49.00
2023-06-08T09:08:58.831Z,49.33
2023-06-08T09:11:29.046Z,49.63
2023-06-08T09:14:11.612Z,50.23
2023-06-08T09:16:45.425Z,50.97
2023-06-08T09:19:15.255Z,47.22
2023-06-08T09:21:44.661Z,43.17
2023-06-08T09:24:14.327Z,45.03
2023-06-08T09:26:48.452Z,44.58
2023-06-08T09:29:36.329Z,46.27
2023-06-08T09:32:06.337Z,45.67
2023-06-08T09:34:53.333Z,45.25
2023-06-08T09:37:28.376Z,46.54
2023-06-08T09:39:56.956Z,44.47
2023-06-08T09:42:25.870Z,45.34
2023-06-08T09:45:10.685Z,42.86
2023-06-08T09:47:39.198Z,44.41
2023-06-08T09:50:11.633Z,44.91
2023-06-08T09:52:42.058Z,41.17
2023-06-08T09:55:12.736Z,42.98
2023-06-08T09:57:43.215Z,43.19
2023-06-08T10:00:20.455Z,41.31
2023-06-08T10:03:03.161Z,41.73
2023-06-08T10:05:34.790Z,41.48
2023-06-08T10:08:06.269Z,41.38
2023-06-08T10:10:39.207Z,41.06
2023-06-08T10:13:08.372Z,39.43
2023-06-08T10:15:36.971Z,40.72
2023-06-08T10:18:06.334Z,41.49
2023-06-08T10:20:37.570Z,43.31
2023-06-08T10:23:07.533Z,44.82
2023-06-08T10:25:37.935Z,45.08
2023-06-08T10:28:08.768Z,43.72
2023-06-08T10:30:42.741Z,42.66
2023-06-08T10:33:13.461Z,38.57
2023-06-08T10:36:03.896Z,39.94
2023-06-08T10:38:37.433Z,45.05
2023-06-08T10:41:06.561Z,45.55
2023-06-08T10:46:06.584Z,41.98
2023-06-08T10:48:39.784Z,37.52
2023-06-08T10:51:12.730Z,39.01
2023-06-08T10:53:59.269Z,38.39
2023-06-08T10:56:30.158Z,36.66
2023-06-08T10:58:58.910Z,36.70
2023-06-08T11:01:33.372Z,39.38
2023-06-08T11:04:03.661Z,34.53
2023-06-08T11:06:40.203Z,32.07
2023-06-08T11:09:08.727Z,37.77
2023-06-08T11:11:37.479Z,35.57
2023-06-08T11:14:05.795Z,36.29
2023-06-08T11:16:35.101Z,38.81
2023-06-08T11:19:03.519Z,39.36
2023-06-08T11:21:31.944Z,40.08
2023-06-08T11:24:04.529Z,40.90
2023-06-08T11:26:32.944Z,43.31
2023-06-08T11:29:03.993Z,44.55
2023-06-08T11:31:41.038Z,40.04
2023-06-08T11:34:14.676Z,36.77
2023-06-08T11:36:44.425Z,35.58
2023-06-08T11:39:14.466Z,37.88
2023-06-08T11:41:47.363Z,38.38
2023-06-08T11:44:16.273Z,35.68
2023-06-08T11:46:45.003Z,35.35
2023-06-08T11:49:13.648Z,36.29
2023-06-08T11:51:51.252Z,37.69
2023-06-08T11:54:21.760Z,37.41
2023-06-08T11:56:50.453Z,38.07
2023-06-08T11:59:20.466Z,33.57
2023-06-08T12:01:59.590Z,35.78
2023-06-08T12:04:32.674Z,33.18
2023-06-08T12:07:10.632Z,37.08
2023-06-08T12:09:41.784Z,36.07
2023-06-08T12:12:12.469Z,36.21
2023-06-08T12:14:46.280Z,36.31
2023-06-08T12:17:17.252Z,33.49
2023-06-08T12:19:46.593Z,32.84
2023-06-08T12:22:15.884Z,34.84
2023-06-08T12:24:45.636Z,33.06
2023-06-08T12:27:14.407Z,34.60
2023-06-08T12:29:43.974Z,35.32
2023-06-08T12:32:12.530Z,34.02
2023-06-08T12:34:41.320Z,33.06
2023-06-08T12:37:10.316Z,32.54
2023-06-08T12:39:39.429Z,35.37
2023-06-08T12:42:10.031Z,34.41
2023-06-08T12:44:38.663Z,35.39
2023-06-08T12:47:08.020Z,35.53
2023-06-08T12:49:36.415Z,33.93
2023-06-08T12:52:05.264Z,34.75
2023-06-08T12:54:34.116Z,35.10
2023-06-08T12:57:03.134Z,33.61
2023-06-08T12:59:33.090Z,33.44
2023-06-08T13:02:01.705Z,33.23
2023-06-08T13:04:31.227Z,32.92
2023-06-08T13:07:00.343Z,34.49
2023-06-08T13:09:29.057Z,34.28
2023-06-08T13:11:58.466Z,32.05
2023-06-08T13:14:26.932Z,34.08
2023-06-08T13:16:56.655Z,35.57
2023-06-08T13:19:25.454Z,34.71
2023-06-08T13:21:54.669Z,35.03
2023-06-08T13:24:23.513Z,34.73
2023-06-08T13:26:54.352Z,32.59
2023-06-08T13:29:23.168Z,33.16
2023-06-08T13:31:53.429Z,34.68
2023-06-08T13:34:23.179Z,30.90
2023-06-08T13:36:52.359Z,32.46
2023-06-08T13:39:21.122Z,35.56
2023-06-08T13:41:49.484Z,35.52
2023-06-08T13:44:17.898Z,36.04
2023-06-08T13:46:46.213Z,35.85
2023-06-08T13:49:15.116Z,33.78
2023-06-08T13:51:45.226Z,35.29
2023-06-08T13:54:14.831Z,34.92
2023-06-08T13:56:43.907Z,36.35
2023-06-08T13:59:12.629Z,37.08
2023-06-08T14:01:41.452Z,33.16
2023-06-08T14:04:10.297Z,31.87
2023-06-08T14:06:39.323Z,33.79
2023-06-08T14:09:11.333Z,33.88
2023-06-08T14:11:40.785Z,34.73
2023-06-08T14:14:09.371Z,34.50
2023-06-08T14:16:38.535Z,35.48
2023-06-08T14:19:07.114Z,38.71
2023-06-08T14:21:35.603Z,41.96
2023-06-08T14:24:04.492Z,45.54
2023-06-08T14:26:34.354Z,47.58
2023-06-08T14:29:03.048Z,48.97
2023-06-08T14:31:31.839Z,49.19
2023-06-08T14:34:00.569Z,47.82
2023-06-08T14:36:29.304Z,48.07
2023-06-08T14:38:58.067Z,47.20
2023-06-08T14:41:28.927Z,47.65
2023-06-08T14:43:58.936Z,48.13
2023-06-08T14:46:27.393Z,46.58
2023-06-08T14:48:56.129Z,47.37
2023-06-08T14:51:37.134Z,46.49
2023-06-08T14:54:06.778Z,46.98
2023-06-08T14:56:36.187Z,46.92
2023-06-08T14:59:06.244Z,48.52
2023-06-08T15:01:37.519Z,50.34
2023-06-08T15:04:08.748Z,51.24
2023-06-08T15:06:37.738Z,52.17
2023-06-08T15:09:06.628Z,53.93
2023-06-08T15:11:34.997Z,53.40
2023-06-08T15:14:05.367Z,54.42
2023-06-08T15:16:33.923Z,56.68
2023-06-08T15:19:02.613Z,59.59
2023-06-08T15:21:31.489Z,59.88
2023-06-08T15:24:00.225Z,60.83
2023-06-08T15:26:28.997Z,61.42
2023-06-08T15:28:58.169Z,61.86
2023-06-08T15:31:27.895Z,65.38
2023-06-08T15:33:56.209Z,66.97
2023-06-08T15:36:25.105Z,67.41
2023-06-08T15:38:53.758Z,69.57
2023-06-08T15:41:23.091Z,70.72
2023-06-08T15:43:51.460Z,71.85
2023-06-08T15:46:19.981Z,71.20
2023-06-08T15:48:55.085Z,72.45
2023-06-08T15:51:29.951Z,75.17
2023-06-08T15:53:59.964Z,75.77
2023-06-08T15:56:28.711Z,75.97
2023-06-08T15:58:57.032Z,77.40
2023-06-08T16:01:27.081Z,77.66
2023-06-08T16:03:57.308Z,76.78
2023-06-08T16:06:26.530Z,77.77
2023-06-08T16:08:54.984Z,78.52
2023-06-08T16:11:24.035Z,78.53
2023-06-08T16:13:52.942Z,79.05
2023-06-08T16:16:21.351Z,80.33
2023-06-08T16:18:50.120Z,80.68
2023-06-08T16:21:24.089Z,81.43
2023-06-08T16:23:56.774Z,80.42
2023-06-08T16:26:25.435Z,80.31
2023-06-08T16:28:54.489Z,80.55
2023-06-08T16:31:23.095Z,79.78
2023-06-08T16:33:51.523Z,80.26
2023-06-08T16:36:19.826Z,81.32
2023-06-08T16:38:52.232Z,82.30
2023-06-08T16:41:21.774Z,81.84
2023-06-08T16:43:51.586Z,81.66
2023-06-08T16:46:19.946Z,81.07
2023-06-08T16:48:48.684Z,81.89
2023-06-08T16:51:17.407Z,81.29
2023-06-08T16:53:47.551Z,82.02
2023-06-08T16:56:17.395Z,82.23
2023-06-08T16:58:45.800Z,82.27
2023-06-08T17:01:14.590Z,82.47
2023-06-08T17:03:43.001Z,82.89
2023-06-08T17:06:11.617Z,83.18
2023-06-08T17:08:40.424Z,83.33
2023-06-08T17:11:09.114Z,84.49
2023-06-08T17:13:41.397Z,84.81
2023-06-08T17:16:10.233Z,85.84
2023-06-08T17:18:38.738Z,88.82
2023-06-08T17:21:08.594Z,90.58
2023-06-08T17:23:37.123Z,91.55
2023-06-08T17:26:06.154Z,91.01
2023-06-08T17:28:34.830Z,90.90
2023-06-08T17:31:05.985Z,90.66
2023-06-08T17:33:34.662Z,89.26
2023-06-08T17:36:03.298Z,87.94
2023-06-08T17:38:31.662Z,87.23
2023-06-08T17:41:00.313Z,86.48
2023-06-08T17:43:29.293Z,88.56
2023-06-08T17:45:58.098Z,87.51
2023-06-08T17:48:27.793Z,88.12
2023-06-08T17:50:56.452Z,85.73
2023-06-08T17:53:26.309Z,85.13
2023-06-08T17:55:55.676Z,82.73
2023-06-08T17:58:24.342Z,82.61
2023-06-08T18:00:52.849Z,83.02
2023-06-08T18:03:21.580Z,81.80
2023-06-08T18:05:51.498Z,81.81
2023-06-08T18:08:22.608Z,81.25
2023-06-08T18:10:51.257Z,82.42
2023-06-08T18:13:19.911Z,85.04
2023-06-08T18:15:48.583Z,85.75
2023-06-08T18:18:17.298Z,85.06
2023-06-08T18:20:46.031Z,85.42
2023-06-08T18:23:16.240Z,84.72
2023-06-08T18:25:45.093Z,83.72
2023-06-08T18:28:13.783Z,84.40
2023-06-08T18:30:42.695Z,85.33
2023-06-08T18:33:11.521Z,86.18
2023-06-08T18:35:40.217Z,85.56
2023-06-08T18:38:08.958Z,86.10
2023-06-08T18:40:38.620Z,86.52
2023-06-08T18:43:07.330Z,89.44
2023-06-08T18:45:35.910Z,92.73
2023-06-08T18:48:04.975Z,93.84
2023-06-08T18:50:33.585Z,93.55
2023-06-08T18:53:02.966Z,96.09
2023-06-08T18:55:32.347Z,92.90
2023-06-08T18:58:02.839Z,91.82
2023-06-08T19:00:31.302Z,90.70
2023-06-08T19:03:00.060Z,85.35
2023-06-08T19:05:28.460Z,85.89
2023-06-08T19:07:57.910Z,85.46
2023-06-08T19:10:26.544Z,84.30
2023-06-08T19:12:56.434Z,82.56
2023-06-08T19:15:26.419Z,85.44
2023-06-08T19:17:55.212Z,82.99
2023-06-08T19:20:24.254Z,84.88
2023-06-08T19:22:52.624Z,83.44
2023-06-08T19:25:21.024Z,81.50
2023-06-08T19:27:49.658Z,81.86
2023-06-08T19:30:18.382Z,81.53
2023-06-08T19:32:50.092Z,84.89
2023-06-08T19:35:18.781Z,100.00
2023-06-08T19:37:47.122Z,100.00
2023-06-08T19:40:16.317Z,100.00
2023-06-08T19:42:47.574Z,100.00
2023-06-08T19:45:16.571Z,100.00
2023-06-08T19:47:45.392Z,100.00
2023-06-08T19:50:15.894Z,100.00
2023-06-08T19:52:44.660Z,100.00
2023-06-08T19:55:13.310Z,100.00
2023-06-08T19:57:42.058Z,100.00
2023-06-08T20:00:12.495Z,100.00
2023-06-08T20:02:41.651Z,100.00
2023-06-08T20:05:11.454Z,100.00
2023-06-08T20:07:41.213Z,100.00
2023-06-08T20:10:10.741Z,100.00
2023-06-08T20:12:39.492Z,100.00
2023-06-08T20:15:08.991Z,100.00
2023-06-08T20:17:37.988Z,100.00
2023-06-08T20:20:07.961Z,100.00
2023-06-08T20:22:36.648Z,100.00
2023-06-08T20:25:08.063Z,100.00
2023-06-08T20:27:36.979Z,100.00
2023-06-08T20:30:07.056Z,100.00
2023-06-08T20:32:35.661Z,100.00
2023-06-08T20:35:06.099Z,100.00
2023-06-08T20:37:35.730Z,100.00
2023-06-08T20:40:09.288Z,100.00
2023-06-08T20:42:37.586Z,100.00
2023-06-08T20:45:07.397Z,100.00
2023-06-08T20:47:36.351Z,100.00
2023-06-08T20:50:05.897Z,100.00
2023-06-08T20:52:34.525Z,100.00
2023-06-08T20:55:03.062Z,100.00
2023-06-08T20:57:32.850Z,100.00
2023-06-08T21:00:01.625Z,100.00
2023-06-08T21:02:31.630Z,100.00
2023-06-08T21:05:00.382Z,100.00
2023-06-08T21:07:29.564Z,100.00
2023-06-08T21:09:57.943Z,100.00
2023-06-08T21:12:26.959Z,100.00
2023-06-08T21:14:57.013Z,100.00
2023-06-08T21:17:25.691Z,100.00
2023-06-08T21:19:54.141Z,100.00
2023-06-08T21:22:22.859Z,100.00
2023-06-08T21:24:51.754Z,100.00
2023-06-08T21:27:21.647Z,100.00
2023-06-08T21:29:50.060Z,100.00
2023-06-08T21:32:19.885Z,100.00
2023-06-08T21:34:48.675Z,100.00
2023-06-08T21:37:17.385Z,100.00
2023-06-08T21:39:46.121Z,100.00
2023-06-08T21:42:15.151Z,100.00
2023-06-08T21:44:44.318Z,100.00
2023-06-08T21:47:12.691Z,100.00
2023-06-08T21:49:42.392Z,100.00
2023-06-08T21:52:11.131Z,100.00
2023-06-08T21:54:39.505Z,100.00
2023-06-08T21:57:08.490Z,100.00
2023-06-08T21:59:37.200Z,100.00
2023-06-08T22:02:06.578Z,100.00
2023-06-08T22:04:35.058Z,100.00
2023-06-08T22:07:07.831Z,100.00
2023-06-08T22:09:37.740Z,100.00
2023-06-08T22:12:09.621Z,100.00
2023-06-08T22:14:38.396Z,100.00
2023-06-08T22:17:08.193Z,100.00
2023-06-08T22:19:36.466Z,100.00
2023-06-08T22:22:06.779Z,100.00
2023-06-08T22:24:35.380Z,100.00
2023-06-08T22:27:05.659Z,100.00
2023-06-08T22:29:34.344Z,100.00
2023-06-08T22:32:03.325Z,100.00
2023-06-08T22:34:31.749Z,100.00
2023-06-08T22:37:00.248Z,100.00
2023-06-08T22:39:33.674Z,100.00
2023-06-08T22:42:02.160Z,100.00
2023-06-08T22:44:30.468Z,100.00
2023-06-08T22:47:00.520Z,100.00
2023-06-08T22:49:29.752Z,100.00
2023-06-08T22:52:03.161Z,100.00
2023-06-08T22:54:33.336Z,100.00
2023-06-08T22:57:01.981Z,100.00
2023-06-08T22:59:30.356Z,100.00
2023-06-08T23:01:58.876Z,100.00
2023-06-08T23:04:27.916Z,100.00
2023-06-08T23:06:56.657Z,100.00
2023-06-08T23:09:25.126Z,100.00
2023-06-08T23:11:55.368Z,100.00
2023-06-08T23:14:24.200Z,100.00
2023-06-08T23:16:52.918Z,100.00
2023-06-08T23:19:22.368Z,100.00
2023-06-08T23:21:54.426Z,100.00
2023-06-08T23:24:24.249Z,100.00
2023-06-08T23:26:54.159Z,100.00
2023-06-08T23:29:22.865Z,100.00
2023-06-08T23:31:51.268Z,100.00
2023-06-08T23:34:19.987Z,100.00
2023-06-08T23:36:48.327Z,100.00
2023-06-08T23:39:17.381Z,100.00
2023-06-08T23:41:45.712Z,100.00
2023-06-08T23:44:15.791Z,100.00
2023-06-08T23:46:45.275Z,100.00
2023-06-08T23:49:14.039Z,100.00
2023-06-08T23:51:42.791Z,100.00
2023-06-08T23:54:12.890Z,100.00
2023-06-08T23:56:41.477Z,100.00
2023-06-08T23:59:09.850Z,100.00
